Impacts METAR Board
IDs:

KEWR - Newark Intl, NJ, US

Updated at: 0500 UTC 18 Oct 2018
Potential Impact None Slight Moderate High
Time 17/17Z 17/18Z 17/19Z 17/20Z 17/21Z 17/22Z 17/23Z 18/00Z 18/01Z 18/02Z 18/03Z 18/04Z 18/05Z
Temp61 63 61 63 61 60 58 55 53 51 50 48 46
Dewpt39 37 37 38 36 35 35 33 33 32 28 27 29
Altim29.91 29.88 29.87 29.87 29.89 29.92 29.98 30.02 30.04 30.08 30.11 30.14 30.16
VIS10 10 10 10 10 10 10 10 10 10 10 10 10
CIG-- -- -- -- -- -- -- -- -- -- -- -- --
CoverFEWFEWSCTSCTSCTSCTSCTFEWFEWFEWFEWFEWFEW
FltCatVFRVFRVFRVFRVFRVFRVFRVFRVFRVFRVFRVFRVFR
WX--------------------------
WDir250260250270290300320300290290290300290
WSpd16 19 16 14 14 16 13 14 14 10 16 9 9
WGst26 25 30 21 24 23 23 25 22 25 30 -- --
Raw hourly METARs
KEWR 171651Z 25016G26KT 10SM FEW050 FEW250 16/04 A2991 RMK AO2 PK WND 26026/1642 SLP129 T01610039
KEWR 171751Z 26019G25KT 10SM FEW050 FEW250 17/03 A2988 RMK AO2 PK WND 25028/1723 SLP117 T01720028 10172 20072 58031
KEWR 171851Z 25016G30KT 10SM SCT075 16/03 A2987 RMK AO2 PK WND 26032/1801 SLP115 T01610028
KEWR 171951Z 27014G21KT 10SM SCT065 SCT090 17/03 A2987 RMK AO2 PK WND 26030/1853 SLP116 T01720033
KEWR 172051Z 29014G24KT 10SM SCT065 SCT090 16/02 A2989 RMK AO2 PK WND 29031/2000 SLP122 T01610022 53005
KEWR 172151Z 30016G23KT 10SM SCT065 SCT090 16/02 A2992 RMK AO2 PK WND 28028/2129 SLP131 T01560017
KEWR 172251Z 32013G23KT 10SM SCT065 SCT085 14/02 A2998 RMK AO2 PK WND 28029/2230 PRESRR SLP150 T01440017
KEWR 172351Z 30014G25KT 10SM FEW050 FEW090 13/01 A3002 RMK AO2 SLP164 T01280006 10178 20128 53042
KEWR 180051Z 29014G22KT 10SM FEW050 FEW090 12/01 A3004 RMK AO2 SLP172 T01170006
KEWR 180151Z 29010G25KT 10SM FEW050 11/00 A3008 RMK AO2 SLP186 T01060000
KEWR 180251Z 29016G30KT 10SM FEW050 10/M02 A3011 RMK AO2 PK WND 28030/0242 SLP195 T01001022 53030
KEWR 180351Z 30009KT 10SM FEW060 09/M03 A3014 RMK AO2 SLP205 T00891028
KEWR 180451Z 29009KT 10SM FEW050 08/M02 A3016 RMK AO2 SLP211 T00781017 401780056



Page loaded:  05:38 UTC  |   10:38 PM Pacific  |   11:38 PM Mountain  |   12:38 AM Central  |   01:38 AM Eastern

 

ADVISORIES

FORECASTS

FORECASTS

OBSERVATIONS

USER TOOLS

ABOUT US